sensor_id;sensor_type;location;lat;lon;timestamp;P1;durP1;ratioP1;P2;durP2;ratioP2
3847;SDS011;1939;48.720;9.166;2022-08-21T00:01:50;9.00;;;3.00;;
3847;SDS011;1939;48.720;9.166;2022-08-21T00:04:15;6.30;;;2.77;;
3847;SDS011;1939;48.720;9.166;2022-08-21T00:06:40;9.67;;;3.30;;
3847;SDS011;1939;48.720;9.166;2022-08-21T00:09:07;6.23;;;3.60;;
3847;SDS011;1939;48.720;9.166;2022-08-21T00:11:33;3.47;;;2.80;;
3847;SDS011;1939;48.720;9.166;2022-08-21T00:14:00;6.33;;;3.30;;
3847;SDS011;1939;48.720;9.166;2022-08-21T00:16:25;6.80;;;3.20;;
3847;SDS011;1939;48.720;9.166;2022-08-21T00:18:50;6.30;;;3.50;;
3847;SDS011;1939;48.720;9.166;2022-08-21T00:21:15;3.80;;;3.03;;
3847;SDS011;1939;48.720;9.166;2022-08-21T00:23:41;4.03;;;2.73;;
3847;SDS011;1939;48.720;9.166;2022-08-21T00:26:06;9.53;;;5.83;;
3847;SDS011;1939;48.720;9.166;2022-08-21T00:28:31;5.50;;;3.00;;
3847;SDS011;1939;48.720;9.166;2022-08-21T00:30:57;6.03;;;3.47;;
3847;SDS011;1939;48.720;9.166;2022-08-21T00:33:23;3.43;;;2.83;;
3847;SDS011;1939;48.720;9.166;2022-08-21T00:35:48;4.63;;;3.40;;
3847;SDS011;1939;48.720;9.166;2022-08-21T00:38:13;3.30;;;2.67;;
3847;SDS011;1939;48.720;9.166;2022-08-21T00:40:47;9.50;;;3.53;;
3847;SDS011;1939;48.720;9.166;2022-08-21T00:43:16;9.57;;;4.37;;
3847;SDS011;1939;48.720;9.166;2022-08-21T00:45:41;7.63;;;3.03;;
3847;SDS011;1939;48.720;9.166;2022-08-21T00:48:07;5.60;;;3.27;;
3847;SDS011;1939;48.720;9.166;2022-08-21T00:50:34;6.07;;;4.50;;
3847;SDS011;1939;48.720;9.166;2022-08-21T00:53:00;4.47;;;3.20;;
3847;SDS011;1939;48.720;9.166;2022-08-21T00:55:26;10.47;;;3.63;;
3847;SDS011;1939;48.720;9.166;2022-08-21T00:57:52;6.07;;;3.47;;
3847;SDS011;1939;48.720;9.166;2022-08-21T01:00:22;5.60;;;3.17;;
3847;SDS011;1939;48.720;9.166;2022-08-21T01:02:48;8.50;;;3.87;;
3847;SDS011;1939;48.720;9.166;2022-08-21T01:05:13;10.77;;;3.90;;
3847;SDS011;1939;48.720;9.166;2022-08-21T01:07:39;5.00;;;3.50;;
3847;SDS011;1939;48.720;9.166;2022-08-21T01:10:05;7.10;;;3.80;;
3847;SDS011;1939;48.720;9.166;2022-08-21T01:12:31;7.73;;;3.97;;
3847;SDS011;1939;48.720;9.166;2022-08-21T01:14:57;4.10;;;2.93;;
3847;SDS011;1939;48.720;9.166;2022-08-21T01:17:23;4.80;;;3.30;;
3847;SDS011;1939;48.720;9.166;2022-08-21T01:19:49;11.50;;;3.90;;
3847;SDS011;1939;48.720;9.166;2022-08-21T01:22:15;5.47;;;4.30;;
3847;SDS011;1939;48.720;9.166;2022-08-21T01:24:40;5.67;;;3.47;;
3847;SDS011;1939;48.720;9.166;2022-08-21T01:27:06;6.90;;;3.77;;
3847;SDS011;1939;48.720;9.166;2022-08-21T01:29:39;3.80;;;3.40;;
3847;SDS011;1939;48.720;9.166;2022-08-21T01:32:08;5.53;;;3.97;;
3847;SDS011;1939;48.720;9.166;2022-08-21T01:34:34;11.20;;;4.13;;
3847;SDS011;1939;48.720;9.166;2022-08-21T01:37:01;10.83;;;4.47;;
3847;SDS011;1939;48.720;9.166;2022-08-21T01:39:26;4.43;;;3.40;;
3847;SDS011;1939;48.720;9.166;2022-08-21T01:41:51;8.27;;;3.53;;
3847;SDS011;1939;48.720;9.166;2022-08-21T01:44:20;6.73;;;4.30;;
3847;SDS011;1939;48.720;9.166;2022-08-21T01:46:45;6.23;;;3.93;;
3847;SDS011;1939;48.720;9.166;2022-08-21T01:49:10;7.40;;;4.13;;
3847;SDS011;1939;48.720;9.166;2022-08-21T01:51:35;6.00;;;3.90;;
3847;SDS011;1939;48.720;9.166;2022-08-21T01:54:01;4.60;;;4.07;;
3847;SDS011;1939;48.720;9.166;2022-08-21T01:56:26;5.60;;;3.50;;
3847;SDS011;1939;48.720;9.166;2022-08-21T01:58:52;5.97;;;3.27;;
3847;SDS011;1939;48.720;9.166;2022-08-21T02:01:18;5.47;;;4.53;;
3847;SDS011;1939;48.720;9.166;2022-08-21T02:03:43;6.10;;;4.23;;
3847;SDS011;1939;48.720;9.166;2022-08-21T02:06:11;7.17;;;3.73;;
3847;SDS011;1939;48.720;9.166;2022-08-21T02:08:38;5.50;;;3.60;;
3847;SDS011;1939;48.720;9.166;2022-08-21T02:11:03;10.03;;;4.10;;
3847;SDS011;1939;48.720;9.166;2022-08-21T02:13:28;7.30;;;4.63;;
3847;SDS011;1939;48.720;9.166;2022-08-21T02:15:53;5.00;;;3.77;;
3847;SDS011;1939;48.720;9.166;2022-08-21T02:18:18;7.00;;;3.80;;
3847;SDS011;1939;48.720;9.166;2022-08-21T02:20:45;5.97;;;3.73;;
3847;SDS011;1939;48.720;9.166;2022-08-21T02:23:10;5.60;;;4.70;;
3847;SDS011;1939;48.720;9.166;2022-08-21T02:25:36;5.10;;;3.67;;
3847;SDS011;1939;48.720;9.166;2022-08-21T02:28:03;9.27;;;4.27;;
3847;SDS011;1939;48.720;9.166;2022-08-21T02:30:31;7.03;;;3.73;;
3847;SDS011;1939;48.720;9.166;2022-08-21T02:32:57;5.73;;;3.87;;
3847;SDS011;1939;48.720;9.166;2022-08-21T02:35:23;9.37;;;3.23;;
3847;SDS011;1939;48.720;9.166;2022-08-21T02:37:50;5.07;;;3.60;;
3847;SDS011;1939;48.720;9.166;2022-08-21T02:40:16;7.57;;;4.30;;
3847;SDS011;1939;48.720;9.166;2022-08-21T02:42:42;4.93;;;3.50;;
3847;SDS011;1939;48.720;9.166;2022-08-21T02:45:08;9.40;;;4.37;;
3847;SDS011;1939;48.720;9.166;2022-08-21T02:47:33;6.00;;;4.20;;
3847;SDS011;1939;48.720;9.166;2022-08-21T02:49:59;6.13;;;3.87;;
3847;SDS011;1939;48.720;9.166;2022-08-21T02:52:24;8.07;;;4.03;;
3847;SDS011;1939;48.720;9.166;2022-08-21T02:54:49;4.87;;;4.37;;
3847;SDS011;1939;48.720;9.166;2022-08-21T02:57:14;10.80;;;4.60;;
3847;SDS011;1939;48.720;9.166;2022-08-21T02:59:39;4.20;;;3.40;;
3847;SDS011;1939;48.720;9.166;2022-08-21T03:02:05;6.10;;;4.17;;
3847;SDS011;1939;48.720;9.166;2022-08-21T03:04:30;9.17;;;3.70;;
3847;SDS011;1939;48.720;9.166;2022-08-21T03:06:56;4.50;;;3.90;;
3847;SDS011;1939;48.720;9.166;2022-08-21T03:09:22;11.10;;;4.63;;
3847;SDS011;1939;48.720;9.166;2022-08-21T03:11:47;5.23;;;3.90;;
3847;SDS011;1939;48.720;9.166;2022-08-21T03:14:12;7.53;;;3.90;;
3847;SDS011;1939;48.720;9.166;2022-08-21T03:16:37;4.50;;;3.87;;
3847;SDS011;1939;48.720;9.166;2022-08-21T03:19:02;9.90;;;3.90;;
3847;SDS011;1939;48.720;9.166;2022-08-21T03:21:28;11.50;;;4.47;;
3847;SDS011;1939;48.720;9.166;2022-08-21T03:23:53;9.50;;;4.23;;
3847;SDS011;1939;48.720;9.166;2022-08-21T03:26:19;6.40;;;4.10;;
3847;SDS011;1939;48.720;9.166;2022-08-21T03:28:44;6.20;;;4.13;;
3847;SDS011;1939;48.720;9.166;2022-08-21T03:31:09;6.10;;;3.90;;
3847;SDS011;1939;48.720;9.166;2022-08-21T03:33:34;7.63;;;4.53;;
3847;SDS011;1939;48.720;9.166;2022-08-21T03:36:00;6.27;;;3.93;;
3847;SDS011;1939;48.720;9.166;2022-08-21T03:38:27;6.37;;;4.20;;
3847;SDS011;1939;48.720;9.166;2022-08-21T03:40:52;8.13;;;5.27;;
3847;SDS011;1939;48.720;9.166;2022-08-21T03:43:17;5.90;;;3.37;;
3847;SDS011;1939;48.720;9.166;2022-08-21T03:45:43;8.77;;;4.30;;
3847;SDS011;1939;48.720;9.166;2022-08-21T03:48:08;6.37;;;4.23;;
3847;SDS011;1939;48.720;9.166;2022-08-21T03:50:35;6.10;;;4.57;;
3847;SDS011;1939;48.720;9.166;2022-08-21T03:53:00;6.57;;;4.53;;
3847;SDS011;1939;48.720;9.166;2022-08-21T03:55:26;5.10;;;4.60;;
3847;SDS011;1939;48.720;9.166;2022-08-21T03:57:52;6.57;;;4.50;;
3847;SDS011;1939;48.720;9.166;2022-08-21T04:00:17;10.47;;;4.90;;
3847;SDS011;1939;48.720;9.166;2022-08-21T04:02:44;6.90;;;4.77;;
3847;SDS011;1939;48.720;9.166;2022-08-21T04:05:10;6.57;;;4.57;;
3847;SDS011;1939;48.720;9.166;2022-08-21T04:07:35;6.47;;;4.30;;
3847;SDS011;1939;48.720;9.166;2022-08-21T04:10:01;7.40;;;4.83;;
3847;SDS011;1939;48.720;9.166;2022-08-21T04:12:26;7.50;;;4.50;;
3847;SDS011;1939;48.720;9.166;2022-08-21T04:14:51;4.30;;;3.80;;
3847;SDS011;1939;48.720;9.166;2022-08-21T04:17:17;5.57;;;4.20;;
3847;SDS011;1939;48.720;9.166;2022-08-21T04:19:42;6.83;;;4.33;;
3847;SDS011;1939;48.720;9.166;2022-08-21T04:22:07;6.83;;;5.13;;
3847;SDS011;1939;48.720;9.166;2022-08-21T04:24:32;5.60;;;4.13;;
3847;SDS011;1939;48.720;9.166;2022-08-21T04:26:58;4.37;;;3.97;;
3847;SDS011;1939;48.720;9.166;2022-08-21T04:29:23;9.87;;;4.30;;
3847;SDS011;1939;48.720;9.166;2022-08-21T04:31:48;8.87;;;4.23;;
3847;SDS011;1939;48.720;9.166;2022-08-21T04:34:13;7.10;;;4.83;;
3847;SDS011;1939;48.720;9.166;2022-08-21T04:36:39;7.80;;;4.97;;
3847;SDS011;1939;48.720;9.166;2022-08-21T04:39:04;5.23;;;3.97;;
3847;SDS011;1939;48.720;9.166;2022-08-21T04:41:29;7.80;;;4.97;;
3847;SDS011;1939;48.720;9.166;2022-08-21T04:43:55;7.70;;;4.37;;
3847;SDS011;1939;48.720;9.166;2022-08-21T04:46:20;8.00;;;4.43;;
3847;SDS011;1939;48.720;9.166;2022-08-21T04:48:45;4.80;;;4.30;;
3847;SDS011;1939;48.720;9.166;2022-08-21T04:51:11;6.00;;;4.43;;
3847;SDS011;1939;48.720;9.166;2022-08-21T04:56:10;9.57;;;3.90;;
3847;SDS011;1939;48.720;9.166;2022-08-21T04:58:36;9.67;;;4.40;;
3847;SDS011;1939;48.720;9.166;2022-08-21T05:01:03;7.03;;;4.30;;
3847;SDS011;1939;48.720;9.166;2022-08-21T05:03:29;7.30;;;4.20;;
3847;SDS011;1939;48.720;9.166;2022-08-21T05:05:56;7.17;;;4.60;;
3847;SDS011;1939;48.720;9.166;2022-08-21T05:08:21;5.77;;;4.30;;
3847;SDS011;1939;48.720;9.166;2022-08-21T05:10:48;10.60;;;3.77;;
3847;SDS011;1939;48.720;9.166;2022-08-21T05:13:13;11.07;;;3.90;;
3847;SDS011;1939;48.720;9.166;2022-08-21T05:15:39;8.53;;;4.80;;
3847;SDS011;1939;48.720;9.166;2022-08-21T05:18:05;8.30;;;3.97;;
3847;SDS011;1939;48.720;9.166;2022-08-21T05:20:31;7.30;;;4.50;;
3847;SDS011;1939;48.720;9.166;2022-08-21T05:22:59;8.90;;;4.27;;
3847;SDS011;1939;48.720;9.166;2022-08-21T05:25:24;6.00;;;4.07;;
3847;SDS011;1939;48.720;9.166;2022-08-21T05:27:50;7.13;;;4.83;;
3847;SDS011;1939;48.720;9.166;2022-08-21T05:30:15;7.00;;;4.40;;
3847;SDS011;1939;48.720;9.166;2022-08-21T05:32:40;8.03;;;5.10;;
3847;SDS011;1939;48.720;9.166;2022-08-21T05:35:06;7.00;;;4.13;;
3847;SDS011;1939;48.720;9.166;2022-08-21T05:37:31;4.60;;;3.67;;
3847;SDS011;1939;48.720;9.166;2022-08-21T05:39:56;6.60;;;4.00;;
3847;SDS011;1939;48.720;9.166;2022-08-21T05:42:22;12.53;;;5.17;;
3847;SDS011;1939;48.720;9.166;2022-08-21T05:44:47;12.50;;;4.77;;
3847;SDS011;1939;48.720;9.166;2022-08-21T05:47:14;6.60;;;3.83;;
3847;SDS011;1939;48.720;9.166;2022-08-21T05:49:39;8.90;;;4.60;;
3847;SDS011;1939;48.720;9.166;2022-08-21T05:52:05;8.57;;;3.90;;
3847;SDS011;1939;48.720;9.166;2022-08-21T05:54:30;8.13;;;4.00;;
3847;SDS011;1939;48.720;9.166;2022-08-21T05:56:56;7.13;;;4.10;;
3847;SDS011;1939;48.720;9.166;2022-08-21T05:59:21;15.00;;;4.20;;
3847;SDS011;1939;48.720;9.166;2022-08-21T06:01:47;11.30;;;4.60;;
3847;SDS011;1939;48.720;9.166;2022-08-21T06:04:12;6.03;;;3.87;;
3847;SDS011;1939;48.720;9.166;2022-08-21T06:06:38;6.30;;;4.43;;
3847;SDS011;1939;48.720;9.166;2022-08-21T06:09:04;9.77;;;5.30;;
3847;SDS011;1939;48.720;9.166;2022-08-21T06:11:29;7.57;;;4.50;;
3847;SDS011;1939;48.720;9.166;2022-08-21T06:13:55;7.73;;;4.50;;
3847;SDS011;1939;48.720;9.166;2022-08-21T06:16:20;7.50;;;4.63;;
3847;SDS011;1939;48.720;9.166;2022-08-21T06:18:47;6.63;;;4.23;;
3847;SDS011;1939;48.720;9.166;2022-08-21T06:21:12;13.43;;;3.80;;
3847;SDS011;1939;48.720;9.166;2022-08-21T06:23:38;5.57;;;4.30;;
3847;SDS011;1939;48.720;9.166;2022-08-21T06:26:04;5.93;;;4.50;;
3847;SDS011;1939;48.720;9.166;2022-08-21T06:28:29;4.23;;;3.20;;
3847;SDS011;1939;48.720;9.166;2022-08-21T06:30:55;4.47;;;3.53;;
3847;SDS011;1939;48.720;9.166;2022-08-21T06:33:20;3.50;;;2.53;;
3847;SDS011;1939;48.720;9.166;2022-08-21T06:35:45;3.50;;;2.93;;
3847;SDS011;1939;48.720;9.166;2022-08-21T06:38:10;3.20;;;2.40;;
3847;SDS011;1939;48.720;9.166;2022-08-21T06:40:36;8.77;;;2.87;;
3847;SDS011;1939;48.720;9.166;2022-08-21T06:43:05;5.80;;;2.30;;
3847;SDS011;1939;48.720;9.166;2022-08-21T06:45:30;3.30;;;2.53;;
3847;SDS011;1939;48.720;9.166;2022-08-21T06:47:56;4.00;;;2.87;;
3847;SDS011;1939;48.720;9.166;2022-08-21T06:50:21;2.90;;;2.30;;
3847;SDS011;1939;48.720;9.166;2022-08-21T06:52:46;7.10;;;2.37;;
3847;SDS011;1939;48.720;9.166;2022-08-21T06:55:11;8.50;;;2.87;;
3847;SDS011;1939;48.720;9.166;2022-08-21T06:57:37;5.57;;;3.17;;
3847;SDS011;1939;48.720;9.166;2022-08-21T07:00:03;8.30;;;3.30;;
3847;SDS011;1939;48.720;9.166;2022-08-21T07:02:29;3.80;;;2.47;;
3847;SDS011;1939;48.720;9.166;2022-08-21T07:04:54;2.80;;;2.60;;
3847;SDS011;1939;48.720;9.166;2022-08-21T07:07:20;4.43;;;2.37;;
3847;SDS011;1939;48.720;9.166;2022-08-21T07:09:45;3.43;;;2.40;;
3847;SDS011;1939;48.720;9.166;2022-08-21T07:12:10;4.03;;;2.50;;
3847;SDS011;1939;48.720;9.166;2022-08-21T07:14:35;3.27;;;2.07;;
3847;SDS011;1939;48.720;9.166;2022-08-21T07:17:01;2.77;;;2.17;;
3847;SDS011;1939;48.720;9.166;2022-08-21T07:19:26;5.00;;;2.50;;
3847;SDS011;1939;48.720;9.166;2022-08-21T07:21:52;2.23;;;2.00;;
3847;SDS011;1939;48.720;9.166;2022-08-21T07:24:18;4.30;;;2.70;;
3847;SDS011;1939;48.720;9.166;2022-08-21T07:26:43;3.30;;;2.90;;
3847;SDS011;1939;48.720;9.166;2022-08-21T07:29:08;5.13;;;3.07;;
3847;SDS011;1939;48.720;9.166;2022-08-21T07:31:33;3.53;;;2.37;;
3847;SDS011;1939;48.720;9.166;2022-08-21T07:33:59;6.80;;;2.80;;
3847;SDS011;1939;48.720;9.166;2022-08-21T07:36:24;6.07;;;2.77;;
3847;SDS011;1939;48.720;9.166;2022-08-21T07:38:49;2.63;;;2.33;;
3847;SDS011;1939;48.720;9.166;2022-08-21T07:41:15;6.13;;;2.70;;
3847;SDS011;1939;48.720;9.166;2022-08-21T07:43:41;3.93;;;2.70;;
3847;SDS011;1939;48.720;9.166;2022-08-21T07:46:07;4.10;;;3.00;;
3847;SDS011;1939;48.720;9.166;2022-08-21T07:48:32;3.27;;;2.27;;
3847;SDS011;1939;48.720;9.166;2022-08-21T07:50:58;8.80;;;2.50;;
3847;SDS011;1939;48.720;9.166;2022-08-21T07:53:23;2.40;;;2.20;;
3847;SDS011;1939;48.720;9.166;2022-08-21T07:55:49;5.87;;;2.70;;
3847;SDS011;1939;48.720;9.166;2022-08-21T07:58:14;3.37;;;2.43;;
3847;SDS011;1939;48.720;9.166;2022-08-21T08:00:39;4.20;;;3.30;;
3847;SDS011;1939;48.720;9.166;2022-08-21T08:03:05;5.30;;;2.60;;
3847;SDS011;1939;48.720;9.166;2022-08-21T08:05:30;4.30;;;2.70;;
3847;SDS011;1939;48.720;9.166;2022-08-21T08:07:56;5.60;;;3.30;;
3847;SDS011;1939;48.720;9.166;2022-08-21T08:10:21;10.40;;;3.27;;
3847;SDS011;1939;48.720;9.166;2022-08-21T08:12:47;3.97;;;2.70;;
3847;SDS011;1939;48.720;9.166;2022-08-21T08:15:16;5.93;;;2.90;;
3847;SDS011;1939;48.720;9.166;2022-08-21T08:17:42;5.30;;;2.63;;
3847;SDS011;1939;48.720;9.166;2022-08-21T08:20:08;3.10;;;2.80;;
3847;SDS011;1939;48.720;9.166;2022-08-21T08:22:34;3.80;;;2.40;;
3847;SDS011;1939;48.720;9.166;2022-08-21T08:25:00;3.07;;;2.47;;
3847;SDS011;1939;48.720;9.166;2022-08-21T08:27:25;3.17;;;2.87;;
3847;SDS011;1939;48.720;9.166;2022-08-21T08:29:51;3.80;;;2.50;;
3847;SDS011;1939;48.720;9.166;2022-08-21T08:32:16;6.40;;;2.70;;
3847;SDS011;1939;48.720;9.166;2022-08-21T08:34:41;3.40;;;3.10;;
3847;SDS011;1939;48.720;9.166;2022-08-21T08:37:07;2.30;;;2.10;;
3847;SDS011;1939;48.720;9.166;2022-08-21T08:39:33;4.27;;;2.40;;
3847;SDS011;1939;48.720;9.166;2022-08-21T08:42:00;4.70;;;2.53;;
3847;SDS011;1939;48.720;9.166;2022-08-21T08:44:28;3.70;;;2.73;;
3847;SDS011;1939;48.720;9.166;2022-08-21T08:46:53;5.53;;;2.70;;
3847;SDS011;1939;48.720;9.166;2022-08-21T08:49:26;4.30;;;2.70;;
3847;SDS011;1939;48.720;9.166;2022-08-21T08:51:57;4.50;;;2.63;;
3847;SDS011;1939;48.720;9.166;2022-08-21T08:54:37;6.00;;;2.90;;
3847;SDS011;1939;48.720;9.166;2022-08-21T08:57:03;7.40;;;2.73;;
3847;SDS011;1939;48.720;9.166;2022-08-21T08:59:38;6.57;;;3.07;;
3847;SDS011;1939;48.720;9.166;2022-08-21T09:02:04;3.67;;;2.23;;
3847;SDS011;1939;48.720;9.166;2022-08-21T09:04:30;4.57;;;2.40;;
3847;SDS011;1939;48.720;9.166;2022-08-21T09:06:58;5.10;;;2.83;;
3847;SDS011;1939;48.720;9.166;2022-08-21T09:09:28;9.13;;;3.00;;
3847;SDS011;1939;48.720;9.166;2022-08-21T09:17:17;5.73;;;2.77;;
3847;SDS011;1939;48.720;9.166;2022-08-21T09:25:12;7.20;;;2.80;;
3847;SDS011;1939;48.720;9.166;2022-08-21T09:27:40;5.03;;;3.23;;
3847;SDS011;1939;48.720;9.166;2022-08-21T09:30:05;9.47;;;2.83;;
3847;SDS011;1939;48.720;9.166;2022-08-21T09:32:32;8.20;;;3.70;;
3847;SDS011;1939;48.720;9.166;2022-08-21T09:37:27;5.80;;;2.77;;
3847;SDS011;1939;48.720;9.166;2022-08-21T09:39:57;4.33;;;3.10;;
3847;SDS011;1939;48.720;9.166;2022-08-21T09:42:27;5.03;;;3.30;;
3847;SDS011;1939;48.720;9.166;2022-08-21T09:45:07;6.70;;;3.43;;
3847;SDS011;1939;48.720;9.166;2022-08-21T09:47:33;3.30;;;3.00;;
3847;SDS011;1939;48.720;9.166;2022-08-21T09:50:07;3.93;;;2.83;;
3847;SDS011;1939;48.720;9.166;2022-08-21T09:52:32;7.43;;;4.27;;
3847;SDS011;1939;48.720;9.166;2022-08-21T09:54:57;4.40;;;3.60;;
3847;SDS011;1939;48.720;9.166;2022-08-21T09:57:24;3.57;;;2.80;;
3847;SDS011;1939;48.720;9.166;2022-08-21T10:00:27;4.83;;;3.10;;
3847;SDS011;1939;48.720;9.166;2022-08-21T10:02:55;9.13;;;3.70;;
3847;SDS011;1939;48.720;9.166;2022-08-21T10:05:22;5.83;;;3.30;;
3847;SDS011;1939;48.720;9.166;2022-08-21T10:07:48;3.77;;;3.20;;
3847;SDS011;1939;48.720;9.166;2022-08-21T10:10:21;7.43;;;3.80;;
3847;SDS011;1939;48.720;9.166;2022-08-21T10:12:58;8.37;;;3.10;;
3847;SDS011;1939;48.720;9.166;2022-08-21T10:25:54;9.47;;;4.00;;
3847;SDS011;1939;48.720;9.166;2022-08-21T10:28:26;8.00;;;3.90;;
3847;SDS011;1939;48.720;9.166;2022-08-21T10:31:00;5.90;;;4.50;;
3847;SDS011;1939;48.720;9.166;2022-08-21T10:36:04;9.80;;;4.60;;
3847;SDS011;1939;48.720;9.166;2022-08-21T10:41:07;9.40;;;3.90;;
3847;SDS011;1939;48.720;9.166;2022-08-21T10:48:54;9.60;;;5.10;;
3847;SDS011;1939;48.720;9.166;2022-08-21T10:53:57;8.27;;;4.07;;
3847;SDS011;1939;48.720;9.166;2022-08-21T10:56:32;6.73;;;4.70;;
3847;SDS011;1939;48.720;9.166;2022-08-21T11:01:46;8.43;;;4.03;;
3847;SDS011;1939;48.720;9.166;2022-08-21T11:04:16;11.20;;;4.67;;
3847;SDS011;1939;48.720;9.166;2022-08-21T11:06:49;10.20;;;4.87;;
3847;SDS011;1939;48.720;9.166;2022-08-21T11:09:20;5.00;;;3.70;;
3847;SDS011;1939;48.720;9.166;2022-08-21T11:11:49;8.70;;;4.80;;
3847;SDS011;1939;48.720;9.166;2022-08-21T11:16:48;10.13;;;4.30;;
3847;SDS011;1939;48.720;9.166;2022-08-21T11:27:01;8.77;;;4.30;;
3847;SDS011;1939;48.720;9.166;2022-08-21T11:29:29;6.37;;;3.50;;
3847;SDS011;1939;48.720;9.166;2022-08-21T11:34:59;8.27;;;4.40;;
3847;SDS011;1939;48.720;9.166;2022-08-21T11:40:08;7.43;;;3.30;;
3847;SDS011;1939;48.720;9.166;2022-08-21T11:42:41;7.33;;;3.90;;
3847;SDS011;1939;48.720;9.166;2022-08-21T11:47:46;5.63;;;3.33;;
3847;SDS011;1939;48.720;9.166;2022-08-21T11:50:16;5.50;;;3.50;;
3847;SDS011;1939;48.720;9.166;2022-08-21T11:52:45;5.40;;;4.10;;
3847;SDS011;1939;48.720;9.166;2022-08-21T11:55:14;9.13;;;3.50;;
3847;SDS011;1939;48.720;9.166;2022-08-21T11:57:50;6.83;;;3.80;;
3847;SDS011;1939;48.720;9.166;2022-08-21T12:00:18;4.80;;;3.67;;
3847;SDS011;1939;48.720;9.166;2022-08-21T12:02:46;5.07;;;3.77;;
3847;SDS011;1939;48.720;9.166;2022-08-21T12:05:22;4.60;;;3.30;;
3847;SDS011;1939;48.720;9.166;2022-08-21T12:07:48;8.17;;;4.67;;
3847;SDS011;1939;48.720;9.166;2022-08-21T12:10:15;6.87;;;4.53;;
3847;SDS011;1939;48.720;9.166;2022-08-21T12:12:41;8.30;;;3.57;;
3847;SDS011;1939;48.720;9.166;2022-08-21T12:17:52;10.00;;;4.47;;
3847;SDS011;1939;48.720;9.166;2022-08-21T12:20:23;5.47;;;3.53;;
3847;SDS011;1939;48.720;9.166;2022-08-21T12:25:36;9.43;;;4.50;;
3847;SDS011;1939;48.720;9.166;2022-08-21T12:28:06;8.83;;;3.67;;
3847;SDS011;1939;48.720;9.166;2022-08-21T12:32:58;8.02;;;3.30;;
3847;SDS011;1939;48.720;9.166;2022-08-21T12:35:38;8.23;;;3.53;;
3847;SDS011;1939;48.720;9.166;2022-08-21T12:38:06;8.87;;;3.97;;
3847;SDS011;1939;48.720;9.166;2022-08-21T12:40:50;7.13;;;4.50;;
3847;SDS011;1939;48.720;9.166;2022-08-21T12:43:28;8.40;;;4.20;;
3847;SDS011;1939;48.720;9.166;2022-08-21T12:45:54;5.90;;;3.57;;
3847;SDS011;1939;48.720;9.166;2022-08-21T12:48:31;4.43;;;3.47;;
3847;SDS011;1939;48.720;9.166;2022-08-21T12:50:57;7.70;;;3.90;;
3847;SDS011;1939;48.720;9.166;2022-08-21T12:53:31;8.60;;;3.83;;
3847;SDS011;1939;48.720;9.166;2022-08-21T12:56:00;4.27;;;3.20;;
3847;SDS011;1939;48.720;9.166;2022-08-21T12:58:28;10.10;;;3.77;;
3847;SDS011;1939;48.720;9.166;2022-08-21T13:01:46;7.00;;;3.40;;
3847;SDS011;1939;48.720;9.166;2022-08-21T13:03:40;5.47;;;3.27;;
3847;SDS011;1939;48.720;9.166;2022-08-21T13:06:05;6.23;;;2.70;;
3847;SDS011;1939;48.720;9.166;2022-08-21T13:08:31;6.87;;;3.20;;
3847;SDS011;1939;48.720;9.166;2022-08-21T13:11:02;5.47;;;3.93;;
3847;SDS011;1939;48.720;9.166;2022-08-21T13:13:28;7.63;;;3.93;;
3847;SDS011;1939;48.720;9.166;2022-08-21T13:15:58;8.90;;;3.60;;
3847;SDS011;1939;48.720;9.166;2022-08-21T13:18:25;10.17;;;4.03;;
3847;SDS011;1939;48.720;9.166;2022-08-21T13:20:51;6.50;;;3.93;;
3847;SDS011;1939;48.720;9.166;2022-08-21T13:23:23;7.37;;;3.27;;
3847;SDS011;1939;48.720;9.166;2022-08-21T13:25:48;3.43;;;2.77;;
3847;SDS011;1939;48.720;9.166;2022-08-21T13:28:14;6.47;;;3.10;;
3847;SDS011;1939;48.720;9.166;2022-08-21T13:30:44;5.13;;;3.37;;
3847;SDS011;1939;48.720;9.166;2022-08-21T13:33:10;8.63;;;3.73;;
3847;SDS011;1939;48.720;9.166;2022-08-21T13:35:45;4.60;;;3.13;;
3847;SDS011;1939;48.720;9.166;2022-08-21T13:38:12;4.20;;;3.27;;
3847;SDS011;1939;48.720;9.166;2022-08-21T13:40:45;8.03;;;3.40;;
3847;SDS011;1939;48.720;9.166;2022-08-21T13:43:12;5.07;;;2.77;;
3847;SDS011;1939;48.720;9.166;2022-08-21T13:45:38;6.17;;;3.67;;
3847;SDS011;1939;48.720;9.166;2022-08-21T13:48:03;13.50;;;3.73;;
3847;SDS011;1939;48.720;9.166;2022-08-21T13:50:30;13.10;;;3.70;;
3847;SDS011;1939;48.720;9.166;2022-08-21T13:52:56;3.80;;;3.00;;
3847;SDS011;1939;48.720;9.166;2022-08-21T13:55:22;8.47;;;3.27;;
3847;SDS011;1939;48.720;9.166;2022-08-21T13:57:48;6.87;;;3.70;;
3847;SDS011;1939;48.720;9.166;2022-08-21T14:00:27;7.43;;;3.67;;
3847;SDS011;1939;48.720;9.166;2022-08-21T14:02:53;4.90;;;3.60;;
3847;SDS011;1939;48.720;9.166;2022-08-21T14:05:20;15.03;;;4.63;;
3847;SDS011;1939;48.720;9.166;2022-08-21T14:07:46;4.93;;;3.40;;
3847;SDS011;1939;48.720;9.166;2022-08-21T14:10:13;7.17;;;3.23;;
3847;SDS011;1939;48.720;9.166;2022-08-21T14:12:44;3.60;;;2.70;;
3847;SDS011;1939;48.720;9.166;2022-08-21T14:15:13;4.97;;;3.23;;
3847;SDS011;1939;48.720;9.166;2022-08-21T14:17:39;6.37;;;3.33;;
3847;SDS011;1939;48.720;9.166;2022-08-21T14:20:06;6.93;;;3.80;;
3847;SDS011;1939;48.720;9.166;2022-08-21T14:22:37;11.13;;;3.87;;
3847;SDS011;1939;48.720;9.166;2022-08-21T14:25:04;5.30;;;3.73;;
3847;SDS011;1939;48.720;9.166;2022-08-21T14:27:31;4.80;;;3.70;;
3847;SDS011;1939;48.720;9.166;2022-08-21T14:29:58;5.50;;;3.47;;
3847;SDS011;1939;48.720;9.166;2022-08-21T14:32:24;4.43;;;3.53;;
3847;SDS011;1939;48.720;9.166;2022-08-21T14:34:52;7.20;;;3.37;;
3847;SDS011;1939;48.720;9.166;2022-08-21T14:37:17;8.40;;;5.17;;
3847;SDS011;1939;48.720;9.166;2022-08-21T14:39:42;6.83;;;3.40;;
3847;SDS011;1939;48.720;9.166;2022-08-21T14:42:07;5.90;;;3.43;;
3847;SDS011;1939;48.720;9.166;2022-08-21T14:44:33;6.00;;;3.60;;
3847;SDS011;1939;48.720;9.166;2022-08-21T14:46:58;6.90;;;3.93;;
3847;SDS011;1939;48.720;9.166;2022-08-21T14:49:24;5.07;;;3.33;;
3847;SDS011;1939;48.720;9.166;2022-08-21T14:51:51;5.97;;;2.87;;
3847;SDS011;1939;48.720;9.166;2022-08-21T14:54:21;4.70;;;3.97;;
3847;SDS011;1939;48.720;9.166;2022-08-21T14:56:46;6.63;;;3.90;;
3847;SDS011;1939;48.720;9.166;2022-08-21T14:59:12;3.60;;;2.90;;
3847;SDS011;1939;48.720;9.166;2022-08-21T15:01:37;4.00;;;3.10;;
3847;SDS011;1939;48.720;9.166;2022-08-21T15:04:03;6.10;;;3.50;;
3847;SDS011;1939;48.720;9.166;2022-08-21T15:06:28;10.50;;;3.30;;
3847;SDS011;1939;48.720;9.166;2022-08-21T15:08:53;10.27;;;3.40;;
3847;SDS011;1939;48.720;9.166;2022-08-21T15:11:19;4.60;;;3.10;;
3847;SDS011;1939;48.720;9.166;2022-08-21T15:13:45;5.43;;;3.60;;
3847;SDS011;1939;48.720;9.166;2022-08-21T15:16:11;7.00;;;4.00;;
3847;SDS011;1939;48.720;9.166;2022-08-21T15:18:36;7.43;;;3.90;;
3847;SDS011;1939;48.720;9.166;2022-08-21T15:21:02;4.57;;;3.73;;
3847;SDS011;1939;48.720;9.166;2022-08-21T15:23:27;5.50;;;3.83;;
3847;SDS011;1939;48.720;9.166;2022-08-21T15:25:52;6.77;;;3.37;;
3847;SDS011;1939;48.720;9.166;2022-08-21T15:28:18;9.57;;;3.90;;
3847;SDS011;1939;48.720;9.166;2022-08-21T15:30:43;8.17;;;3.97;;
3847;SDS011;1939;48.720;9.166;2022-08-21T15:33:09;7.90;;;3.70;;
3847;SDS011;1939;48.720;9.166;2022-08-21T15:35:34;8.27;;;3.97;;
3847;SDS011;1939;48.720;9.166;2022-08-21T15:38:00;7.33;;;4.27;;
3847;SDS011;1939;48.720;9.166;2022-08-21T15:40:25;8.13;;;3.87;;
3847;SDS011;1939;48.720;9.166;2022-08-21T15:42:51;8.47;;;3.90;;
3847;SDS011;1939;48.720;9.166;2022-08-21T15:45:18;4.00;;;2.70;;
3847;SDS011;1939;48.720;9.166;2022-08-21T15:47:44;4.90;;;3.90;;
3847;SDS011;1939;48.720;9.166;2022-08-21T15:50:10;8.77;;;4.50;;
3847;SDS011;1939;48.720;9.166;2022-08-21T15:52:36;4.73;;;3.17;;
3847;SDS011;1939;48.720;9.166;2022-08-21T15:55:02;5.37;;;3.77;;
3847;SDS011;1939;48.720;9.166;2022-08-21T15:57:27;5.53;;;3.07;;
3847;SDS011;1939;48.720;9.166;2022-08-21T16:00:15;7.67;;;4.33;;
3847;SDS011;1939;48.720;9.166;2022-08-21T16:02:39;7.80;;;3.73;;
3847;SDS011;1939;48.720;9.166;2022-08-21T16:05:05;6.77;;;3.47;;
3847;SDS011;1939;48.720;9.166;2022-08-21T16:07:30;3.67;;;3.10;;
3847;SDS011;1939;48.720;9.166;2022-08-21T16:09:56;4.47;;;3.60;;
3847;SDS011;1939;48.720;9.166;2022-08-21T16:12:22;7.43;;;3.60;;
3847;SDS011;1939;48.720;9.166;2022-08-21T16:14:48;4.70;;;4.10;;
3847;SDS011;1939;48.720;9.166;2022-08-21T16:17:14;9.27;;;4.30;;
3847;SDS011;1939;48.720;9.166;2022-08-21T16:19:40;7.17;;;3.60;;
3847;SDS011;1939;48.720;9.166;2022-08-21T16:22:05;3.73;;;2.93;;